Norwegian Majesty — C6OY4 — position and weather

sailwx.info

Track history (hours):
 
Tides and Currents Weather Stations Pressure Air Temp Water Temp Dewpoint Dewpoint Depression Visibility Wind Speed Wind Dir Waves Ship Positions

Norwegian Majesty

Operator: Norwegian Cruise Line

Last reported at 2009-Nov-26 07:09 UTC. Time now 2019-Oct-17 00:11 UTC.
Position N 44°24' E 008°56'.
Warning: this ship's position is years out of date!

Type: Ship. MMSI: 309902000.

Date/timePositionNaut miles runAvg speedWind from/ knotsBaromVisibWave heightAir tempDewpointWater temp
2009-Nov-26 07:09N 44°24' E 008°56'0 0.0
2009-Nov-26 06:31N 44°24' E 008°56'0 0.0
2009-Nov-26 05:34N 44°24' E 008°56'0 0.0
2009-Nov-26 04:25N 44°24' E 008°56'0 0.0
2009-Nov-26 03:30N 44°24' E 008°56'0 0.0
2009-Nov-26 02:19N 44°24' E 008°56'0 0.0
2009-Nov-26 01:33N 44°24' E 008°56'0 0.0
2009-Nov-26 00:29N 44°24' E 008°56'0 0.0
2009-Nov-25 23:32N 44°24' E 008°56'0 0.0
2009-Nov-25 22:21N 44°24' E 008°56'0 0.0
2009-Nov-25 21:33N 44°24' E 008°56'0 0.0
2009-Nov-25 20:32N 44°24' E 008°56'0 0.0
2009-Nov-25 19:36N 44°24' E 008°56'0 0.0
2009-Nov-25 19:25N 44°24' E 008°56'0 0.0
2009-Nov-25 18:26N 44°24' E 008°56'0 0.0
2009-Nov-25 17:32N 44°24' E 008°56'0 0.0
2009-Nov-25 16:28N 44°24' E 008°56'  
2009-Nov-19 09:02N 38°05' W 000°03'6 9.6
2009-Nov-19 08:21N 38°00' W 000°08'8 9.4
2009-Nov-19 07:33N 37°54' W 000°14'10 9.3
2009-Nov-19 06:31N 37°46' W 000°20'9 8.8
2009-Nov-19 05:30N 37°38' W 000°26'9 8.6
2009-Nov-19 04:26N 37°31' W 000°33'8 8.6
2009-Nov-19 03:33N 37°26' W 000°41'9 9.1
2009-Nov-19 02:30N 37°20' W 000°50'9 8.9
2009-Nov-19 01:28N 37°13' W 000°58'11 9.4
2009-Nov-19 00:17N 37°06' W 001°09'7 9.6
2009-Nov-18 23:31N 37°01' W 001°15'8511.2
2009-Nov-18 15:55N 36°19' W 002°48'713.9
2009-Nov-18 15:24N 36°18' W 002°57'1214.5
2009-Nov-18 14:33N 36°17' W 003°12'1914.6
2009-Nov-18 13:15N 36°15' W 003°35'1317.6
2009-Nov-18 12:30N 36°14' W 003°52'1920.5
2009-Nov-18 11:33N 36°12' W 004°16'4020.2
2009-Nov-18 09:33N 36°06' W 005°05'  
Track history (hours):
 
Tides and Currents Weather Stations Pressure Air Temp Water Temp Dewpoint Dewpoint Depression Visibility Wind Speed Wind Dir Waves Ship Positions

Norwegian Majesty

Operator: Norwegian Cruise Line

Last reported at 2009-Nov-26 07:09 UTC. Time now 2019-Oct-17 00:11 UTC.
Position N 44°24' E 008°56'.
Warning: this ship's position is years out of date!

Type: Ship. MMSI: 309902000.

Date/timePositionNaut miles runAvg speedWind from/ knotsBaromVisibWave heightAir tempDewpointWater temp
2009-Nov-26 07:09N 44°24' E 008°56'0 0.0
2009-Nov-26 06:31N 44°24' E 008°56'0 0.0
2009-Nov-26 05:34N 44°24' E 008°56'0 0.0
2009-Nov-26 04:25N 44°24' E 008°56'0 0.0
2009-Nov-26 03:30N 44°24' E 008°56'0 0.0
2009-Nov-26 02:19N 44°24' E 008°56'0 0.0
2009-Nov-26 01:33N 44°24' E 008°56'0 0.0
2009-Nov-26 00:29N 44°24' E 008°56'0 0.0
2009-Nov-25 23:32N 44°24' E 008°56'0 0.0
2009-Nov-25 22:21N 44°24' E 008°56'0 0.0
2009-Nov-25 21:33N 44°24' E 008°56'0 0.0
2009-Nov-25 20:32N 44°24' E 008°56'0 0.0
2009-Nov-25 19:36N 44°24' E 008°56'0 0.0
2009-Nov-25 19:25N 44°24' E 008°56'0 0.0
2009-Nov-25 18:26N 44°24' E 008°56'0 0.0
2009-Nov-25 17:32N 44°24' E 008°56'0 0.0
2009-Nov-25 16:28N 44°24' E 008°56'  
2009-Nov-19 09:02N 38°05' W 000°03'6 9.6
2009-Nov-19 08:21N 38°00' W 000°08'8 9.4
2009-Nov-19 07:33N 37°54' W 000°14'10 9.3
2009-Nov-19 06:31N 37°46' W 000°20'9 8.8
2009-Nov-19 05:30N 37°38' W 000°26'9 8.6
2009-Nov-19 04:26N 37°31' W 000°33'8 8.6
2009-Nov-19 03:33N 37°26' W 000°41'9 9.1
2009-Nov-19 02:30N 37°20' W 000°50'9 8.9
2009-Nov-19 01:28N 37°13' W 000°58'11 9.4
2009-Nov-19 00:17N 37°06' W 001°09'7 9.6
2009-Nov-18 23:31N 37°01' W 001°15'8511.2
2009-Nov-18 15:55N 36°19' W 002°48'713.9
2009-Nov-18 15:24N 36°18' W 002°57'1214.5
2009-Nov-18 14:33N 36°17' W 003°12'1914.6
2009-Nov-18 13:15N 36°15' W 003°35'1317.6
2009-Nov-18 12:30N 36°14' W 003°52'1920.5
2009-Nov-18 11:33N 36°12' W 004°16'4020.2
2009-Nov-18 09:33N 36°06' W 005°05'  

Dump ship's entire track history